sensor_id;sensor_type;location;lat;lon;timestamp;pressure;altitude;pressure_sealevel;temperature;humidity
76054;BME280;64752;48.870;9.082;2023-11-19T00:02:20;97926.88;;;8.48;100.00
76054;BME280;64752;48.870;9.082;2023-11-19T00:04:45;97907.81;;;8.53;100.00
76054;BME280;64752;48.870;9.082;2023-11-19T00:07:11;97900.91;;;8.55;100.00
76054;BME280;64752;48.870;9.082;2023-11-19T00:09:38;97896.69;;;8.51;100.00
76054;BME280;64752;48.870;9.082;2023-11-19T00:12:05;97885.59;;;8.47;100.00
76054;BME280;64752;48.870;9.082;2023-11-19T00:14:31;97883.06;;;8.45;100.00
76054;BME280;64752;48.870;9.082;2023-11-19T00:16:56;97883.94;;;8.44;100.00
76054;BME280;64752;48.870;9.082;2023-11-19T00:19:22;97878.78;;;8.44;100.00
76054;BME280;64752;48.870;9.082;2023-11-19T00:21:47;97868.44;;;8.44;100.00
76054;BME280;64752;48.870;9.082;2023-11-19T00:24:12;97879.53;;;8.48;100.00
76054;BME280;64752;48.870;9.082;2023-11-19T00:26:40;97873.38;;;8.52;100.00
76054;BME280;64752;48.870;9.082;2023-11-19T00:29:07;97872.31;;;8.59;100.00
76054;BME280;64752;48.870;9.082;2023-11-19T00:31:32;97865.31;;;8.63;100.00
76054;BME280;64752;48.870;9.082;2023-11-19T00:33:57;97869.50;;;8.67;100.00
76054;BME280;64752;48.870;9.082;2023-11-19T00:36:23;97869.50;;;8.67;100.00
76054;BME280;64752;48.870;9.082;2023-11-19T00:38:49;97860.63;;;8.76;100.00
76054;BME280;64752;48.870;9.082;2023-11-19T00:41:15;97863.94;;;8.81;100.00
76054;BME280;64752;48.870;9.082;2023-11-19T00:43:41;97859.41;;;8.87;100.00
76054;BME280;64752;48.870;9.082;2023-11-19T00:46:07;97864.56;;;8.87;100.00
76054;BME280;64752;48.870;9.082;2023-11-19T00:48:32;97851.56;;;8.91;100.00
76054;BME280;64752;48.870;9.082;2023-11-19T00:50:58;97841.16;;;8.92;100.00
76054;BME280;64752;48.870;9.082;2023-11-19T00:53:23;97845.22;;;9.01;100.00
76054;BME280;64752;48.870;9.082;2023-11-19T00:55:49;97847.81;;;9.01;100.00
76054;BME280;64752;48.870;9.082;2023-11-19T00:58:14;97842.38;;;9.09;100.00
76054;BME280;64752;48.870;9.082;2023-11-19T01:00:39;97849.97;;;9.13;100.00
76054;BME280;64752;48.870;9.082;2023-11-19T01:03:05;97851.66;;;9.16;100.00
76054;BME280;64752;48.870;9.082;2023-11-19T01:05:32;97842.66;;;9.26;100.00
76054;BME280;64752;48.870;9.082;2023-11-19T01:07:57;97848.56;;;9.31;100.00
76054;BME280;64752;48.870;9.082;2023-11-19T01:10:23;97838.00;;;9.37;100.00
76054;BME280;64752;48.870;9.082;2023-11-19T01:12:49;97834.56;;;9.37;100.00
76054;BME280;64752;48.870;9.082;2023-11-19T01:15:14;97841.31;;;9.41;100.00
76054;BME280;64752;48.870;9.082;2023-11-19T01:17:40;97836.06;;;9.44;100.00
76054;BME280;64752;48.870;9.082;2023-11-19T01:20:05;97823.91;;;9.46;100.00
76054;BME280;64752;48.870;9.082;2023-11-19T01:22:37;97834.06;;;9.52;100.00
76054;BME280;64752;48.870;9.082;2023-11-19T01:25:03;97833.16;;;9.53;100.00
76054;BME280;64752;48.870;9.082;2023-11-19T01:27:30;97834.88;;;9.54;100.00
76054;BME280;64752;48.870;9.082;2023-11-19T01:29:55;97836.50;;;9.57;100.00
76054;BME280;64752;48.870;9.082;2023-11-19T01:32:21;97842.50;;;9.57;100.00
76054;BME280;64752;48.870;9.082;2023-11-19T01:34:46;97838.16;;;9.59;100.00
76054;BME280;64752;48.870;9.082;2023-11-19T01:37:12;97827.66;;;9.62;100.00
76054;BME280;64752;48.870;9.082;2023-11-19T01:39:39;97820.59;;;9.68;100.00
76054;BME280;64752;48.870;9.082;2023-11-19T01:42:05;97828.63;;;9.60;100.00
76054;BME280;64752;48.870;9.082;2023-11-19T01:44:30;97825.78;;;9.68;100.00
76054;BME280;64752;48.870;9.082;2023-11-19T01:46:57;97831.69;;;9.71;100.00
76054;BME280;64752;48.870;9.082;2023-11-19T01:49:23;97833.22;;;9.77;100.00
76054;BME280;64752;48.870;9.082;2023-11-19T01:51:49;97827.06;;;9.79;100.00
76054;BME280;64752;48.870;9.082;2023-11-19T01:54:14;97821.91;;;9.79;100.00
76054;BME280;64752;48.870;9.082;2023-11-19T01:56:40;97829.78;;;9.76;100.00
76054;BME280;64752;48.870;9.082;2023-11-19T01:59:07;97829.75;;;9.78;100.00
76054;BME280;64752;48.870;9.082;2023-11-19T02:01:36;97827.06;;;9.79;100.00
76054;BME280;64752;48.870;9.082;2023-11-19T02:04:06;97820.84;;;9.85;100.00
76054;BME280;64752;48.870;9.082;2023-11-19T02:06:34;97815.66;;;9.85;100.00
76054;BME280;64752;48.870;9.082;2023-11-19T02:09:00;97815.56;;;9.88;100.00
76054;BME280;64752;48.870;9.082;2023-11-19T02:11:26;97817.22;;;9.91;100.00
76054;BME280;64752;48.870;9.082;2023-11-19T02:13:55;97815.78;;;9.82;100.00
76054;BME280;64752;48.870;9.082;2023-11-19T02:16:21;97812.19;;;9.86;100.00
76054;BME280;64752;48.870;9.082;2023-11-19T02:18:46;97806.78;;;9.92;100.00
76054;BME280;64752;48.870;9.082;2023-11-19T02:21:13;97802.50;;;9.91;100.00
76054;BME280;64752;48.870;9.082;2023-11-19T02:23:40;97799.00;;;9.92;100.00
76054;BME280;64752;48.870;9.082;2023-11-19T02:28:35;97804.31;;;9.89;100.00
76054;BME280;64752;48.870;9.082;2023-11-19T02:31:02;97802.66;;;9.87;100.00
76054;BME280;64752;48.870;9.082;2023-11-19T02:33:29;97799.19;;;9.88;100.00
76054;BME280;64752;48.870;9.082;2023-11-19T02:35:55;97800.66;;;9.95;100.00
76054;BME280;64752;48.870;9.082;2023-11-19T02:38:21;97803.19;;;9.96;100.00
76054;BME280;64752;48.870;9.082;2023-11-19T02:40:47;97802.13;;;10.02;100.00
76054;BME280;64752;48.870;9.082;2023-11-19T02:43:13;97805.56;;;10.02;100.00
76054;BME280;64752;48.870;9.082;2023-11-19T02:45:38;97802.13;;;10.02;100.00
76054;BME280;64752;48.870;9.082;2023-11-19T02:48:04;97805.47;;;10.06;100.00
76054;BME280;64752;48.870;9.082;2023-11-19T02:50:31;97802.19;;;10.24;100.00
76054;BME280;64752;48.870;9.082;2023-11-19T02:52:57;97798.88;;;10.20;100.00
76054;BME280;64752;48.870;9.082;2023-11-19T02:55:23;97803.84;;;10.25;100.00
76054;BME280;64752;48.870;9.082;2023-11-19T02:57:49;57492.53;;;-146.59;100.00
76054;BME280;64752;48.870;9.082;2023-11-19T03:00:19;97801.94;;;10.30;100.00
76054;BME280;64752;48.870;9.082;2023-11-19T03:02:48;57492.53;;;-146.59;100.00
76054;BME280;64752;48.870;9.082;2023-11-19T03:05:25;57492.53;;;-146.59;100.00
76054;BME280;64752;48.870;9.082;2023-11-19T03:07:50;57492.53;;;-146.59;100.00
76054;BME280;64752;48.870;9.082;2023-11-19T03:10:16;57492.53;;;-146.59;100.00
76054;BME280;64752;48.870;9.082;2023-11-19T03:12:43;97806.72;;;10.43;100.00
76054;BME280;64752;48.870;9.082;2023-11-19T03:15:09;57492.53;;;-146.59;100.00
76054;BME280;64752;48.870;9.082;2023-11-19T03:17:38;97811.13;;;10.40;100.00
76054;BME280;64752;48.870;9.082;2023-11-19T03:20:08;57492.53;;;-146.59;100.00
76054;BME280;64752;48.870;9.082;2023-11-19T03:22:40;97804.28;;;10.38;100.00
76054;BME280;64752;48.870;9.082;2023-11-19T03:25:12;97805.31;;;10.34;100.00
76054;BME280;64752;48.870;9.082;2023-11-19T03:27:38;97795.97;;;10.04;100.00
76054;BME280;64752;48.870;9.082;2023-11-19T03:30:05;97792.75;;;9.98;100.00
76054;BME280;64752;48.870;9.082;2023-11-19T03:32:32;97785.84;;;9.98;100.00
76054;BME280;64752;48.870;9.082;2023-11-19T03:34:57;97789.44;;;9.94;100.00
76054;BME280;64752;48.870;9.082;2023-11-19T03:37:23;97785.84;;;9.98;100.00
76054;BME280;64752;48.870;9.082;2023-11-19T03:39:49;97795.44;;;9.96;100.00
76054;BME280;64752;48.870;9.082;2023-11-19T03:42:14;97790.41;;;9.92;100.00
76054;BME280;64752;48.870;9.082;2023-11-19T03:44:40;97785.84;;;9.98;100.00
76054;BME280;64752;48.870;9.082;2023-11-19T03:47:05;97788.06;;;10.09;100.00
76054;BME280;64752;48.870;9.082;2023-11-19T03:49:31;97786.13;;;10.14;100.00
76054;BME280;64752;48.870;9.082;2023-11-19T03:51:56;97768.72;;;10.18;100.00
76054;BME280;64752;48.870;9.082;2023-11-19T03:54:21;97765.13;;;10.22;100.00
76054;BME280;64752;48.870;9.082;2023-11-19T03:56:48;97754.03;;;10.18;100.00
76054;BME280;64752;48.870;9.082;2023-11-19T03:59:13;97739.25;;;10.20;100.00
76054;BME280;64752;48.870;9.082;2023-11-19T04:01:40;97745.34;;;10.19;100.00
76054;BME280;64752;48.870;9.082;2023-11-19T04:04:05;97739.81;;;10.29;100.00
76054;BME280;64752;48.870;9.082;2023-11-19T04:06:31;97748.28;;;10.34;100.00
76054;BME280;64752;48.870;9.082;2023-11-19T04:08:56;97747.97;;;10.41;100.00
76054;BME280;64752;48.870;9.082;2023-11-19T04:11:22;97758.25;;;10.45;100.00
76054;BME280;64752;48.870;9.082;2023-11-19T04:13:47;97760.84;;;10.45;100.00
76054;BME280;64752;48.870;9.082;2023-11-19T04:16:12;97764.16;;;10.48;100.00
76054;BME280;64752;48.870;9.082;2023-11-19T04:18:40;97758.25;;;10.45;100.00
76054;BME280;64752;48.870;9.082;2023-11-19T04:21:09;97760.66;;;10.49;100.00
76054;BME280;64752;48.870;9.082;2023-11-19T04:23:34;97761.25;;;10.56;100.00
76054;BME280;64752;48.870;9.082;2023-11-19T04:26:04;97756.81;;;10.59;100.00
76054;BME280;64752;48.870;9.082;2023-11-19T04:28:30;97762.00;;;10.59;100.00
76054;BME280;64752;48.870;9.082;2023-11-19T04:30:55;97753.31;;;10.60;100.00
76054;BME280;64752;48.870;9.082;2023-11-19T04:33:21;97759.09;;;10.67;100.00
76054;BME280;64752;48.870;9.082;2023-11-19T04:35:46;97758.38;;;10.64;100.00
76054;BME280;64752;48.870;9.082;2023-11-19T04:38:12;97765.06;;;10.69;100.00
76054;BME280;64752;48.870;9.082;2023-11-19T04:40:37;97757.09;;;10.74;100.00
76054;BME280;64752;48.870;9.082;2023-11-19T04:43:02;97757.63;;;10.82;100.00
76054;BME280;64752;48.870;9.082;2023-11-19T04:45:28;97759.44;;;10.80;100.00
76054;BME280;64752;48.870;9.082;2023-11-19T04:47:53;97767.13;;;10.83;100.00
76054;BME280;64752;48.870;9.082;2023-11-19T04:50:18;97759.91;;;10.90;100.00
76054;BME280;64752;48.870;9.082;2023-11-19T04:52:44;97760.47;;;10.98;100.00
76054;BME280;64752;48.870;9.082;2023-11-19T04:55:10;97764.72;;;10.99;100.00
76054;BME280;64752;48.870;9.082;2023-11-19T04:57:37;97773.13;;;11.06;100.00
76054;BME280;64752;48.870;9.082;2023-11-19T05:00:03;97762.56;;;11.10;100.00
76054;BME280;64752;48.870;9.082;2023-11-19T05:02:30;97762.47;;;11.12;100.00
76054;BME280;64752;48.870;9.082;2023-11-19T05:04:56;97760.75;;;11.12;100.00
76054;BME280;64752;48.870;9.082;2023-11-19T05:07:22;97760.91;;;11.08;100.00
76054;BME280;64752;48.870;9.082;2023-11-19T05:09:47;97760.03;;;11.09;100.00
76054;BME280;64752;48.870;9.082;2023-11-19T05:12:12;97761.19;;;11.02;100.00
76054;BME280;64752;48.870;9.082;2023-11-19T05:14:38;97765.53;;;11.01;100.00
76054;BME280;64752;48.870;9.082;2023-11-19T05:17:04;97766.31;;;11.03;100.00
76054;BME280;64752;48.870;9.082;2023-11-19T05:19:29;97771.56;;;11.02;100.00
76054;BME280;64752;48.870;9.082;2023-11-19T05:21:55;97773.72;;;11.12;100.00
76054;BME280;64752;48.870;9.082;2023-11-19T05:24:20;97773.06;;;11.07;100.00
76054;BME280;64752;48.870;9.082;2023-11-19T05:26:45;97773.56;;;11.15;100.00
76054;BME280;64752;48.870;9.082;2023-11-19T05:29:12;97765.88;;;11.14;100.00
76054;BME280;64752;48.870;9.082;2023-11-19T05:31:37;97774.38;;;11.17;100.00
76054;BME280;64752;48.870;9.082;2023-11-19T05:34:03;97776.16;;;11.15;100.00
76054;BME280;64752;48.870;9.082;2023-11-19T05:36:29;97767.59;;;11.13;100.00
76054;BME280;64752;48.870;9.082;2023-11-19T05:38:55;97758.38;;;11.06;100.00
76054;BME280;64752;48.870;9.082;2023-11-19T05:41:20;97753.28;;;11.05;100.00
76054;BME280;64752;48.870;9.082;2023-11-19T05:43:45;97752.31;;;11.07;100.00
76054;BME280;64752;48.870;9.082;2023-11-19T05:46:11;97741.91;;;11.07;100.00
76054;BME280;64752;48.870;9.082;2023-11-19T05:48:38;97741.19;;;11.04;100.00
76054;BME280;64752;48.870;9.082;2023-11-19T05:51:03;97742.41;;;10.95;100.00
76054;BME280;64752;48.870;9.082;2023-11-19T05:53:29;97730.47;;;10.91;100.00
76054;BME280;64752;48.870;9.082;2023-11-19T05:55:54;97729.66;;;10.90;100.00
76054;BME280;64752;48.870;9.082;2023-11-19T05:58:27;97740.09;;;10.89;100.00
76054;BME280;64752;48.870;9.082;2023-11-19T06:00:57;97745.38;;;10.86;100.00
76054;BME280;64752;48.870;9.082;2023-11-19T06:03:22;97745.44;;;10.84;100.00
76054;BME280;64752;48.870;9.082;2023-11-19T06:05:50;97748.81;;;10.86;100.00
76054;BME280;64752;48.870;9.082;2023-11-19T06:08:16;97756.59;;;10.86;100.00
76054;BME280;64752;48.870;9.082;2023-11-19T06:10:42;97766.81;;;10.91;100.00
76054;BME280;64752;48.870;9.082;2023-11-19T06:13:07;97758.69;;;10.98;100.00
76054;BME280;64752;48.870;9.082;2023-11-19T06:15:35;97774.09;;;11.03;100.00
76054;BME280;64752;48.870;9.082;2023-11-19T06:18:01;97781.88;;;11.03;100.00
76054;BME280;64752;48.870;9.082;2023-11-19T06:20:28;97780.00;;;11.07;100.00
76054;BME280;64752;48.870;9.082;2023-11-19T06:22:54;97776.09;;;11.17;100.00
76054;BME280;64752;48.870;9.082;2023-11-19T06:25:19;97771.84;;;11.16;100.00
76054;BME280;64752;48.870;9.082;2023-11-19T06:27:45;97763.84;;;11.21;100.00
76054;BME280;64752;48.870;9.082;2023-11-19T06:30:11;97769.81;;;11.23;100.00
76054;BME280;64752;48.870;9.082;2023-11-19T06:32:37;97776.09;;;11.17;100.00
76054;BME280;64752;48.870;9.082;2023-11-19T06:35:02;97774.38;;;11.17;100.00
76054;BME280;64752;48.870;9.082;2023-11-19T06:37:30;97781.13;;;11.22;100.00
76054;BME280;64752;48.870;9.082;2023-11-19T06:39:55;97781.13;;;11.22;100.00
76054;BME280;64752;48.870;9.082;2023-11-19T06:42:20;97786.16;;;11.25;100.00
76054;BME280;64752;48.870;9.082;2023-11-19T06:44:46;97788.72;;;11.26;100.00
76054;BME280;64752;48.870;9.082;2023-11-19T06:47:11;97789.41;;;11.30;100.00
76054;BME280;64752;48.870;9.082;2023-11-19T06:49:36;97781.53;;;11.33;100.00
76054;BME280;64752;48.870;9.082;2023-11-19T06:52:02;97784.94;;;11.33;100.00
76054;BME280;64752;48.870;9.082;2023-11-19T06:54:27;97788.38;;;11.34;100.00
76054;BME280;64752;48.870;9.082;2023-11-19T06:56:53;97788.47;;;11.32;100.00
76054;BME280;64752;48.870;9.082;2023-11-19T06:59:18;97781.31;;;11.37;100.00
76054;BME280;64752;48.870;9.082;2023-11-19T07:01:44;97779.53;;;11.40;100.00
76054;BME280;64752;48.870;9.082;2023-11-19T07:04:12;97768.41;;;11.36;100.00
76054;BME280;64752;48.870;9.082;2023-11-19T07:06:38;97766.59;;;11.38;100.00
76054;BME280;64752;48.870;9.082;2023-11-19T07:09:06;97764.91;;;11.37;100.00
76054;BME280;64752;48.870;9.082;2023-11-19T07:11:38;97782.03;;;11.41;100.00
76054;BME280;64752;48.870;9.082;2023-11-19T07:14:05;97793.28;;;11.42;100.00
76054;BME280;64752;48.870;9.082;2023-11-19T07:16:32;97797.50;;;11.44;100.00
76054;BME280;64752;48.870;9.082;2023-11-19T07:19:03;97796.66;;;11.44;100.00
76054;BME280;64752;48.870;9.082;2023-11-19T07:21:29;97801.63;;;11.48;100.00
76054;BME280;64752;48.870;9.082;2023-11-19T07:23:57;97802.50;;;11.49;100.00
76054;BME280;64752;48.870;9.082;2023-11-19T07:26:23;97801.56;;;11.50;100.00
76054;BME280;64752;48.870;9.082;2023-11-19T07:28:52;97803.41;;;11.48;100.00
76054;BME280;64752;48.870;9.082;2023-11-19T07:31:18;97818.97;;;11.48;100.00
76054;BME280;64752;48.870;9.082;2023-11-19T07:33:46;97824.94;;;11.50;100.00
76054;BME280;64752;48.870;9.082;2023-11-19T07:36:13;97824.06;;;11.51;100.00
76054;BME280;64752;48.870;9.082;2023-11-19T07:38:38;97826.50;;;11.54;100.00
76054;BME280;64752;48.870;9.082;2023-11-19T07:41:05;97816.81;;;11.57;100.00
76054;BME280;64752;48.870;9.082;2023-11-19T07:43:30;97826.44;;;11.55;100.00
76054;BME280;64752;48.870;9.082;2023-11-19T07:45:56;97824.69;;;11.56;100.00
76054;BME280;64752;48.870;9.082;2023-11-19T07:48:24;97818.53;;;11.58;100.00
76054;BME280;64752;48.870;9.082;2023-11-19T07:50:49;97826.97;;;11.64;100.00
76054;BME280;64752;48.870;9.082;2023-11-19T07:53:16;97831.31;;;11.63;100.00
76054;BME280;64752;48.870;9.082;2023-11-19T07:55:41;97828.53;;;11.68;100.00
76054;BME280;64752;48.870;9.082;2023-11-19T07:58:06;97835.38;;;11.69;100.00
76054;BME280;64752;48.870;9.082;2023-11-19T08:00:32;97829.19;;;11.73;100.00
76054;BME280;64752;48.870;9.082;2023-11-19T08:02:57;97832.69;;;11.72;100.00
76054;BME280;64752;48.870;9.082;2023-11-19T08:05:22;97828.13;;;11.77;100.00
76054;BME280;64752;48.870;9.082;2023-11-19T08:07:50;97837.53;;;11.80;100.00
76054;BME280;64752;48.870;9.082;2023-11-19T08:10:15;97831.63;;;11.76;100.00
76054;BME280;64752;48.870;9.082;2023-11-19T08:12:41;97827.03;;;11.83;100.00
76054;BME280;64752;48.870;9.082;2023-11-19T08:15:08;97829.69;;;11.81;100.00
76054;BME280;64752;48.870;9.082;2023-11-19T08:17:34;97828.41;;;11.91;100.00
76054;BME280;64752;48.870;9.082;2023-11-19T08:19:59;97827.41;;;12.14;100.00
76054;BME280;64752;48.870;9.082;2023-11-19T08:22:25;97829.75;;;12.40;100.00
76054;BME280;64752;48.870;9.082;2023-11-19T08:24:50;97837.56;;;12.40;100.00
76054;BME280;64752;48.870;9.082;2023-11-19T08:27:16;97836.00;;;12.36;100.00
76054;BME280;64752;48.870;9.082;2023-11-19T08:29:41;97846.06;;;12.43;100.00
76054;BME280;64752;48.870;9.082;2023-11-19T08:32:06;97839.44;;;12.36;100.00
76054;BME280;64752;48.870;9.082;2023-11-19T08:34:32;97845.94;;;12.26;100.00
76054;BME280;64752;48.870;9.082;2023-11-19T08:36:57;97843.56;;;12.21;100.00
76054;BME280;64752;48.870;9.082;2023-11-19T08:39:26;97839.78;;;12.28;100.00
76054;BME280;64752;48.870;9.082;2023-11-19T08:42:05;97849.25;;;12.29;100.00
76054;BME280;64752;48.870;9.082;2023-11-19T08:44:31;97860.38;;;12.33;100.00
76054;BME280;64752;48.870;9.082;2023-11-19T08:46:56;97850.56;;;12.40;100.00
76054;BME280;64752;48.870;9.082;2023-11-19T08:49:21;97834.75;;;12.44;100.00
76054;BME280;64752;48.870;9.082;2023-11-19T08:51:48;97831.31;;;12.63;100.00
76054;BME280;64752;48.870;9.082;2023-11-19T08:54:14;97838.97;;;12.85;100.00
76054;BME280;64752;48.870;9.082;2023-11-19T08:56:39;97826.53;;;13.63;100.00
76054;BME280;64752;48.870;9.082;2023-11-19T08:59:05;97826.47;;;14.31;100.00
76054;BME280;64752;48.870;9.082;2023-11-19T09:01:30;97825.31;;;14.53;100.00
76054;BME280;64752;48.870;9.082;2023-11-19T09:03:56;97836.38;;;15.52;97.09
76054;BME280;64752;48.870;9.082;2023-11-19T09:06:21;97834.09;;;16.35;94.33
76054;BME280;64752;48.870;9.082;2023-11-19T09:08:47;97837.25;;;16.40;90.42
76054;BME280;64752;48.870;9.082;2023-11-19T09:11:12;97840.31;;;16.90;89.48
76054;BME280;64752;48.870;9.082;2023-11-19T09:13:37;97838.84;;;15.69;93.41
76054;BME280;64752;48.870;9.082;2023-11-19T09:16:03;97838.72;;;15.10;96.73
76054;BME280;64752;48.870;9.082;2023-11-19T09:18:31;97841.84;;;15.01;99.13
76054;BME280;64752;48.870;9.082;2023-11-19T09:20:57;97838.72;;;14.46;100.00
76054;BME280;64752;48.870;9.082;2023-11-19T09:23:23;97849.56;;;14.55;100.00
76054;BME280;64752;48.870;9.082;2023-11-19T09:25:50;97852.00;;;14.42;100.00
76054;BME280;64752;48.870;9.082;2023-11-19T09:28:16;97855.22;;;14.14;100.00
76054;BME280;64752;48.870;9.082;2023-11-19T09:30:41;97851.84;;;14.12;99.21
76054;BME280;64752;48.870;9.082;2023-11-19T09:33:06;97864.63;;;14.16;100.00
76054;BME280;64752;48.870;9.082;2023-11-19T09:35:32;97857.34;;;14.23;99.84
76054;BME280;64752;48.870;9.082;2023-11-19T09:37:58;97854.56;;;14.26;99.19
76054;BME280;64752;48.870;9.082;2023-11-19T09:40:24;97846.69;;;14.93;94.96
76054;BME280;64752;48.870;9.082;2023-11-19T09:42:50;97835.81;;;15.47;92.23
76054;BME280;64752;48.870;9.082;2023-11-19T09:45:17;97851.72;;;14.96;94.87
76054;BME280;64752;48.870;9.082;2023-11-19T09:47:44;97845.84;;;16.42;88.41
76054;BME280;64752;48.870;9.082;2023-11-19T09:50:17;97842.03;;;17.04;83.44
76054;BME280;64752;48.870;9.082;2023-11-19T09:52:44;97849.31;;;17.53;80.11
76054;BME280;64752;48.870;9.082;2023-11-19T09:55:10;97846.50;;;18.22;74.73
76054;BME280;64752;48.870;9.082;2023-11-19T09:57:39;97844.94;;;18.69;70.45
76054;BME280;64752;48.870;9.082;2023-11-19T10:00:07;97845.22;;;18.53;72.91
76054;BME280;64752;48.870;9.082;2023-11-19T10:02:36;97848.78;;;18.52;72.52
76054;BME280;64752;48.870;9.082;2023-11-19T10:05:06;97845.25;;;18.02;75.67
76054;BME280;64752;48.870;9.082;2023-11-19T10:07:32;97833.66;;;16.99;80.22
76054;BME280;64752;48.870;9.082;2023-11-19T10:10:02;97841.38;;;16.44;81.31
76054;BME280;64752;48.870;9.082;2023-11-19T10:12:29;97848.56;;;16.26;81.81
76054;BME280;64752;48.870;9.082;2023-11-19T10:14:57;97835.56;;;16.25;82.19
76054;BME280;64752;48.870;9.082;2023-11-19T10:17:28;97841.19;;;16.62;80.20
76054;BME280;64752;48.870;9.082;2023-11-19T10:19:54;97831.53;;;16.62;79.11
76054;BME280;64752;48.870;9.082;2023-11-19T10:22:20;97835.38;;;16.28;81.37
76054;BME280;64752;48.870;9.082;2023-11-19T10:24:45;97836.69;;;16.49;79.86
76054;BME280;64752;48.870;9.082;2023-11-19T10:27:11;97839.97;;;16.24;79.22
76054;BME280;64752;48.870;9.082;2023-11-19T10:29:37;97846.41;;;16.47;78.84
76054;BME280;64752;48.870;9.082;2023-11-19T10:32:03;97844.75;;;16.17;81.10
76054;BME280;64752;48.870;9.082;2023-11-19T10:34:29;97853.72;;;16.56;80.39
76054;BME280;64752;48.870;9.082;2023-11-19T10:36:57;97833.09;;;16.65;77.89
76054;BME280;64752;48.870;9.082;2023-11-19T10:39:24;97831.16;;;17.10;75.43
76054;BME280;64752;48.870;9.082;2023-11-19T10:42:15;97834.63;;;17.38;74.62
76054;BME280;64752;48.870;9.082;2023-11-19T10:44:41;97833.41;;;17.56;72.75
76054;BME280;64752;48.870;9.082;2023-11-19T10:47:08;97830.22;;;18.17;70.58
76054;BME280;64752;48.870;9.082;2023-11-19T10:49:34;97831.91;;;17.39;72.09
76054;BME280;64752;48.870;9.082;2023-11-19T10:52:01;97838.41;;;16.92;75.51
76054;BME280;64752;48.870;9.082;2023-11-19T10:54:27;97831.72;;;16.45;75.77
76054;BME280;64752;48.870;9.082;2023-11-19T10:56:59;97835.78;;;16.22;76.78
76054;BME280;64752;48.870;9.082;2023-11-19T10:59:30;97841.34;;;15.87;76.60
76054;BME280;64752;48.870;9.082;2023-11-19T11:01:57;97841.06;;;15.91;78.95
76054;BME280;64752;48.870;9.082;2023-11-19T11:04:24;97841.16;;;16.04;78.80
76054;BME280;64752;48.870;9.082;2023-11-19T11:07:03;97832.13;;;15.95;78.56
76054;BME280;64752;48.870;9.082;2023-11-19T11:09:30;97828.59;;;15.66;79.98
76054;BME280;64752;48.870;9.082;2023-11-19T11:11:56;97832.13;;;15.65;78.69
76054;BME280;64752;48.870;9.082;2023-11-19T11:14:24;97828.75;;;15.63;79.78
76054;BME280;64752;48.870;9.082;2023-11-19T11:16:50;97829.41;;;15.67;79.16
76054;BME280;64752;48.870;9.082;2023-11-19T11:19:17;97835.69;;;15.64;79.90
76054;BME280;64752;48.870;9.082;2023-11-19T11:21:47;97816.59;;;15.78;79.39
76054;BME280;64752;48.870;9.082;2023-11-19T11:32:37;97816.38;;;18.02;66.46
76054;BME280;64752;48.870;9.082;2023-11-19T11:37:56;97807.09;;;18.47;63.91
76054;BME280;64752;48.870;9.082;2023-11-19T11:40:25;97795.75;;;18.97;62.73
76054;BME280;64752;48.870;9.082;2023-11-19T11:42:51;97784.47;;;18.58;63.47
76054;BME280;64752;48.870;9.082;2023-11-19T11:45:18;97790.09;;;19.25;61.28
76054;BME280;64752;48.870;9.082;2023-11-19T11:50:20;97810.59;;;19.09;59.84
76054;BME280;64752;48.870;9.082;2023-11-19T11:55:37;97792.38;;;19.65;60.59
76054;BME280;64752;48.870;9.082;2023-11-19T11:58:30;97800.22;;;18.95;61.94
76054;BME280;64752;48.870;9.082;2023-11-19T12:00:58;97783.72;;;18.19;64.78
76054;BME280;64752;48.870;9.082;2023-11-19T12:03:27;97782.91;;;17.00;70.19
76054;BME280;64752;48.870;9.082;2023-11-19T12:05:53;97779.25;;;18.82;64.49
76054;BME280;64752;48.870;9.082;2023-11-19T12:08:20;97788.91;;;18.44;64.53
76054;BME280;64752;48.870;9.082;2023-11-19T12:10:51;97786.47;;;17.91;68.17
76054;BME280;64752;48.870;9.082;2023-11-19T12:13:18;97787.69;;;17.20;70.68
76054;BME280;64752;48.870;9.082;2023-11-19T12:18:28;97781.25;;;16.43;72.29
76054;BME280;64752;48.870;9.082;2023-11-19T12:20:54;97790.06;;;17.50;68.61
76054;BME280;64752;48.870;9.082;2023-11-19T12:23:20;97772.03;;;18.36;62.11
76054;BME280;64752;48.870;9.082;2023-11-19T12:25:46;97769.84;;;17.52;65.98
76054;BME280;64752;48.870;9.082;2023-11-19T12:28:12;97773.19;;;18.32;63.45
76054;BME280;64752;48.870;9.082;2023-11-19T12:30:38;97758.75;;;18.00;63.33
76054;BME280;64752;48.870;9.082;2023-11-19T12:33:11;97752.47;;;18.77;60.70
76054;BME280;64752;48.870;9.082;2023-11-19T12:35:40;97741.84;;;18.78;59.77
76054;BME280;64752;48.870;9.082;2023-11-19T12:38:05;97736.41;;;18.68;61.48
76054;BME280;64752;48.870;9.082;2023-11-19T12:40:31;97733.31;;;19.58;56.92
76054;BME280;64752;48.870;9.082;2023-11-19T12:42:56;97727.88;;;19.02;57.79
76054;BME280;64752;48.870;9.082;2023-11-19T12:45:22;97734.41;;;19.67;54.74
76054;BME280;64752;48.870;9.082;2023-11-19T12:47:49;97734.78;;;18.92;55.93
76054;BME280;64752;48.870;9.082;2023-11-19T12:50:17;97735.84;;;18.52;58.90
76054;BME280;64752;48.870;9.082;2023-11-19T12:52:55;97740.16;;;18.53;59.38
76054;BME280;64752;48.870;9.082;2023-11-19T12:55:29;97741.00;;;18.04;60.93
76054;BME280;64752;48.870;9.082;2023-11-19T12:57:55;97738.41;;;17.91;61.33
76054;BME280;64752;48.870;9.082;2023-11-19T13:00:22;97742.47;;;17.69;62.04
76054;BME280;64752;48.870;9.082;2023-11-19T13:02:56;97736.56;;;18.54;58.49
76054;BME280;64752;48.870;9.082;2023-11-19T13:08:06;97743.81;;;17.75;60.56
76054;BME280;64752;48.870;9.082;2023-11-19T13:10:33;97743.03;;;18.37;59.39
76054;BME280;64752;48.870;9.082;2023-11-19T13:13:07;97750.16;;;17.98;59.76
76054;BME280;64752;48.870;9.082;2023-11-19T13:15:34;97740.16;;;17.65;59.72
76054;BME280;64752;48.870;9.082;2023-11-19T13:18:00;97740.06;;;17.79;60.31